Flight Track Log - Related Links

Times and Time Zones

All times are in EST time to prevent confusion due to time zone crossing. See the AAL969 flight status page for this flight to view local times or setup timezone preferences in your user account.


Time Position Orientation Groundspeed Altitude Reporting Facility
EST Latitude Longitude Course Direction KTS MPH feet Rate Location/Type
Sun 11:39:00 AM 25.9772 -80.5144 314° West  Level FlightAware Approximate
Sun 11:39:18 AM 25.9472 -80.2762 318° Northwest 298 343 11,200  Level FlightAware ADS-B (LPL / EGGP)
Sun 11:40:00 AM 26.0447 -80.5915 314° West  Level FlightAware Approximate
Sun 11:40:35 AM 25.9894 -80.3827 294° West 288 331 15,200  Level FlightAware ADS-B (LPL / EGGP)
Sun 11:41:00 AM 26.1152 -80.6652 318° Northwest  Level FlightAware Approximate
Sun 11:41:17 AM 26.0121 -80.4425 293° West 314 361 16,300  Level FlightAware ADS-B (LPL / EGGP)
Sun 11:41:47 AM 26.0300 -80.4888 293° West 326 375 17,300 2,000 Climbing FlightAware ADS-B (LPL / EGGP)
Sun 11:42:17 AM 26.0485 -80.5360 294° West 340 391 18,300 2,100 Climbing FlightAware ADS-B (LPL / EGGP)
Sun 11:42:47 AM 26.0658 -80.5814 293° West 348 400 19,400 2,100 Climbing FlightAware ADS-B (LPL / EGGP)
Sun 11:43:17 AM 26.0885 -80.6344 295° West 362 417 20,400 1,957 Climbing FlightAware ADS-B (LPL / EGGP)
Sun 11:43:33 AM 26.1050 -80.6581 308° West 370 426 20,900 1,920 Climbing FlightAware ADS-B (LPL / EGGP)
Sun 11:44:07 AM 26.1487 -80.7008 319° Northwest 380 437 22,000 1,969 Climbing FlightAware ADS-B (LPL / EGGP)
Sun 11:44:37 AM 26.1875 -80.7384 319° Northwest 387 445 23,000 1,826 Climbing FlightAware ADS-B (LPL / EGGP)
Sun 11:45:16 AM 26.2391 -80.7915 317° Northwest 396 456 24,100 1,826 Climbing FlightAware ADS-B (LPL / EGGP)
Sun 11:45:46 AM 26.2826 -80.8357 318° Northwest 402 463 25,100 2,060 Climbing FlightAware ADS-B (LPL / EGGP)
Sun 11:46:23 AM 26.3333 -80.8867 318° Northwest 403 464 26,400 1,944 Climbing FlightAware ADS-B (LPL / EGGP)
Sun 11:46:57 AM 26.3805 -80.9344 318° Northwest 402 463 27,400 1,703 Climbing FlightAware ADS-B (LPL / EGGP)
Sun 11:47:37 AM 26.4355 -80.9905 318° Northwest 405 466 28,500 624 Climbing FlightAware ADS-B (LPL / EGGP)
Sun 11:49:02 AM 26.4435 -80.9987 318° Northwest 406 467 28,700 604 Climbing FlightAware ADS-B
Sun 11:50:06 AM 26.5335 -81.0917 317° Northwest 413 475 30,000 1,271 Climbing FlightAware ADS-B
Sun 11:50:27 AM 26.5534 -81.1214 307° West 411 473 30,500 1,575 Climbing FlightAware ADS-B
Sun 11:51:26 AM 26.6084 -81.2357 298° West 404 465 32,100 1,560 Climbing FlightAware ADS-B
Sun 11:52:07 AM 26.6443 -81.3105 298° West 403 464 33,100 1,421 Climbing FlightAware ADS-B
Sun 11:52:42 AM 26.6742 -81.3731 298° West 402 463 33,900 1,114 Climbing FlightAware ADS-B
Sun 11:53:17 AM 26.7056 -81.4389 298° West 404 465 34,400 960 Climbing FlightAware ADS-B
Sun 11:53:57 AM 26.7406 -81.5127 298° West 405 466 35,100 1,029 Climbing FlightAware ADS-B
Sun 11:54:27 AM 26.7669 -81.5688 298° West 406 467 35,600 885 Climbing FlightAware ADS-B
Sun 11:54:58 AM 26.7922 -81.6228 298° West 407 468 36,000 338 Climbing FlightAware ADS-B
Sun 11:55:38 AM 26.8288 -81.7015 298° West 406 467 36,000  Level FlightAware ADS-B
Sun 11:56:08 AM 26.8541 -81.7553 298° West 405 466 36,000  Level FlightAware ADS-B
Sun 11:56:38 AM 26.8776 -81.8050 298° West 404 465 36,000  Level FlightAware ADS-B
Sun 11:57:18 AM 26.9128 -81.8802 298° West 402 463 36,000  Level FlightAware ADS-B
Sun 11:57:57 AM 26.9491 -81.9581 298° West 400 460 36,000  Level FlightAware ADS-B
Sun 11:58:27 AM 26.9735 -82.0107 298° West 399 459 36,000  Level FlightAware ADS-B
Sun 11:59:03 AM 27.0044 -82.0773 297° West 396 456 36,000  Level FlightAware ADS-B
Sun 11:59:35 AM 27.0309 -82.1344 298° West 395 455 36,000  Level FlightAware ADS-B
Sun 12:00:08 PM 27.0589 -82.1949 297° West 394 453 36,000  Level FlightAware ADS-B
Sun 12:01:27 PM 27.1257 -82.3396 297° West 393 452 36,000  Level FlightAware ADS-B
Sun 12:02:06 PM 27.1568 -82.4067 298° West 393 452 36,000  Level FlightAware ADS-B
Sun 12:02:52 PM 27.1965 -82.4931 297° West 393 452 36,000  Level FlightAware ADS-B
Sun 12:07:59 PM 27.4509 -83.0508 297° West 394 453 36,000  Level FlightAware ADS-B
Sun 12:08:39 PM 27.4831 -83.1214 297° West 394 453 36,000  Level FlightAware ADS-B
Sun 12:09:53 PM 27.5408 -83.2542 297° West 400 460 36,000  Level Miami Center
Sun 12:10:53 PM 27.5900 -83.3644 297° West 393 452 36,000  Level Miami Center
Sun 12:11:53 PM 27.6414 -83.4753 298° West 403 464 36,000 150 Level Miami Center
Sun 12:12:53 PM 27.6906 -83.5833 297° West 396 456 36,300 650 Climbing Miami Center
Sun 12:13:53 PM 27.7378 -83.6894 297° West 396 456 37,300 850 Climbing Miami Center
Sun 12:14:53 PM 27.7886 -83.8025 297° West 391 450 38,000 350 Climbing Miami Center
Sun 12:15:53 PM 27.8336 -83.9039 297° West 384 442 38,000  Level Miami Center
Sun 12:18:19 PM 27.9475 -84.1683 296° West 384 442 38,000  Level Jacksonville Center
Sun 12:19:19 PM 27.9964 -84.2769 297° West 384 442 38,000 -50 Level Jacksonville Center
Sun 12:20:19 PM 28.0433 -84.3833 297° West 384 442 37,900  Descending Jacksonville Center
Sun 12:21:19 PM 28.0900 -84.4900 296° West 384 442 38,000 50 Climbing Jacksonville Center
Sun 12:22:19 PM 28.1367 -84.5942 297° West 389 448 38,000  Level Jacksonville Center
Sun 12:23:19 PM 28.1853 -84.7058 296° West 389 448 38,000  Level Jacksonville Center
Sun 12:24:19 PM 28.2314 -84.8172 295° West 384 442 38,000  Level Jacksonville Center
Sun 12:25:19 PM 28.2800 -84.9172 299° West 384 442 38,000  Level Jacksonville Center
Sun 12:26:19 PM 28.3242 -85.0314 294° West 384 442 38,000  Level Jacksonville Center
Sun 12:27:19 PM 28.3703 -85.1383 296° West 384 442 38,000  Level Jacksonville Center
Sun 12:28:19 PM 28.4164 -85.2503 295° West 390 449 38,000  Level Jacksonville Center
Sun 12:29:19 PM 28.4600 -85.3600 294° West 390 449 38,000 -50 Level Jacksonville Center
Sun 12:30:19 PM 28.4975 -85.4719 291° West 380 437 37,900 -50 Descending Jacksonville Center
Sun 12:31:19 PM 28.5369 -85.5817 292° West 375 432 37,900 50 Level Jacksonville Center
Sun 12:32:19 PM 28.5764 -85.6961 291° West 380 437 38,000  Climbing Jacksonville Center
Sun 12:33:19 PM 28.6156 -85.8083 292° West 380 437 37,900  Descending Jacksonville Center
Sun 12:34:19 PM 28.6547 -85.9158 293° West 374 430 38,000 50 Climbing Jacksonville Center
Sun 12:35:19 PM 28.6939 -86.0261 292° West 374 430 38,000  Level Jacksonville Center
Sun 12:36:19 PM 28.7328 -86.1383 292° West 374 430 38,000  Level Jacksonville Center
Sun 12:37:19 PM 28.7758 -86.2489 294° West 382 440 38,000  Level Jacksonville Center
Sun 12:38:19 PM 28.8231 -86.3594 296° West 381 438 38,000  Level Jacksonville Center
Sun 12:39:19 PM 28.8703 -86.4678 296° West 381 438 38,000 -50 Level Jacksonville Center
Sun 12:40:19 PM 28.9153 -86.5736 296° West 386 444 37,900 -50 Descending Jacksonville Center
Sun 12:41:19 PM 28.9622 -86.6797 297° West 386 444 37,900  Level Jacksonville Center
Sun 12:42:19 PM 29.0069 -86.7858 296° West 381 438 37,900  Level Jacksonville Center
Sun 12:43:19 PM 29.0558 -86.8972 297° West 381 438 37,900 63 Level Jacksonville Center
Sun 12:43:54 PM 29.0714 -86.9372 294° West 376 433 38,000 61 Climbing Houston Center
Sun 12:44:58 PM 29.1269 -87.0664 296° West 378 435 38,000  Level Houston Center
Sun 12:46:00 PM 29.1703 -87.1758 294° West 378 435 38,000  Level Houston Center
Sun 12:47:00 PM 29.2092 -87.2872 292° West 377 434 38,000  Level Houston Center
Sun 12:48:04 PM 29.2439 -87.4003 289° West 377 434 38,000  Level Houston Center
Sun 12:49:06 PM 29.2772 -87.5142 289° West 377 434 38,000 -49 Level Houston Center
Sun 12:50:07 PM 29.3139 -87.6494 287° West 374 430 37,900 -48 Descending Houston Center
Sun 12:51:11 PM 29.3419 -87.7631 286° West 371 427 37,900 48 Level Houston Center
Sun 12:52:12 PM 29.3683 -87.8692 286° West 371 427 38,000 48 Climbing Houston Center
Sun 12:53:16 PM 29.3936 -87.9831 284° West 369 425 38,000  Level Houston Center
Sun 12:54:17 PM 29.4225 -88.1169 284° West 363 418 38,000  Level Houston Center
Sun 12:55:18 PM 29.4489 -88.2289 285° West 364 419 38,000  Level Houston Center
Sun 12:56:21 PM 29.4761 -88.3411 286° West 367 422 38,000  Level Houston Center
Sun 12:57:22 PM 29.5031 -88.4583 285° West 363 418 38,000  Level Houston Center
Sun 12:58:25 PM 29.5242 -88.5733 282° West 367 422 38,000  Level Houston Center
Sun 12:59:29 PM 29.5461 -88.6883 282° West 368 423 38,000 -48 Level Houston Center
Sun 01:00:29 PM 29.5650 -88.8044 281° West 369 425 37,900  Descending Houston Center
Sun 01:01:30 PM 29.5858 -88.9186 282° West 368 423 38,000 48 Climbing Houston Center
Sun 01:02:34 PM 29.6158 -89.0547 284° West 366 421 38,000 -48 Level Houston Center
Sun 01:03:36 PM 29.6408 -89.1689 284° West 367 422 37,900 -48 Descending Houston Center
Sun 01:04:39 PM 29.6372 -89.2822 268° West 361 415 37,900 48 Level Houston Center
Sun 01:05:40 PM 29.6225 -89.3967 262° West 361 415 38,000  Climbing Houston Center
Sun 01:06:41 PM 29.6033 -89.5094 259° West 359 413 37,900  Descending Houston Center
Sun 01:07:45 PM 29.5828 -89.6244 258° West 364 419 38,000 48 Climbing Houston Center
Sun 01:08:47 PM 29.5564 -89.7628 258° West 368 423 38,000  Level Houston Center
Sun 01:09:47 PM 29.5331 -89.8767 257° West 367 422 38,000  Level Houston Center
Sun 01:10:51 PM 29.5075 -89.9925 256° West 371 427 38,000  Level Houston Center
Sun 01:11:53 PM 29.4808 -90.1072 255° West 372 428 38,000  Level Houston Center
Sun 01:17:47 PM 29.3288 -90.7726 255° West 371 427 38,000  Level FlightAware ADS-B
Sun 01:21:27 PM 29.3779 -91.2162 277° West 391 450 38,000  Level FlightAware ADS-B
Sun 01:22:07 PM 29.4113 -91.2801 301° West 397 457 38,000  Level FlightAware ADS-B
Sun 01:22:36 PM 29.4434 -91.3407 301° West 398 458 38,000  Level FlightAware ADS-B
Sun 01:23:06 PM 29.4750 -91.4013 301° West 396 456 38,000  Level FlightAware ADS-B
Sun 01:23:36 PM 29.5015 -91.4526 301° West 395 455 38,000  Level FlightAware ADS-B
Sun 01:23:50 PM 29.5136 -91.4762 301° West 395 455 38,000  Level FlightAware ADS-B
Sun 01:24:37 PM 29.5560 -91.5580 301° West 396 456 38,000  Level FlightAware ADS-B
Sun 01:25:06 PM 29.5692 -91.5834 301° West 394 453 38,000  Level FlightAware ADS-B
Sun 01:25:37 PM 29.6136 -91.6694 301° West 393 452 38,000  Level FlightAware ADS-B
Sun 01:26:07 PM 29.6416 -91.7238 301° West 392 451 38,000  Level FlightAware ADS-B
Sun 01:26:37 PM 29.6515 -91.7429 301° West 392 451 38,000  Level FlightAware ADS-B
Sun 01:27:07 PM 29.6960 -91.8294 301° West 391 450 38,000  Level FlightAware ADS-B
Sun 01:27:37 PM 29.7245 -91.8851 301° West 389 448 38,000  Level FlightAware ADS-B
Sun 01:28:06 PM 29.7518 -91.9383 301° West 388 447 38,000  Level FlightAware ADS-B
Sun 01:28:37 PM 29.7775 -91.9883 301° West 388 447 38,000  Level FlightAware ADS-B
Sun 01:29:07 PM 29.8066 -92.0452 301° West 387 445 38,000  Level FlightAware ADS-B
Sun 01:29:37 PM 29.8330 -92.0969 301° West 388 447 38,000  Level FlightAware ADS-B
Sun 01:30:06 PM 29.8604 -92.1508 300° West 387 445 38,000  Level FlightAware ADS-B
Sun 01:30:36 PM 29.8863 -92.2014 301° West 387 445 38,000  Level FlightAware ADS-B
Sun 01:31:06 PM 29.9113 -92.2504 300° West 385 443 38,000  Level FlightAware ADS-B
Sun 01:31:36 PM 29.9402 -92.3074 300° West 383 441 38,000  Level FlightAware ADS-B
Sun 01:32:06 PM 29.9674 -92.3609 300° West 384 442 38,000  Level FlightAware ADS-B
Sun 01:32:37 PM 29.9955 -92.4158 301° West 383 441 38,000  Level FlightAware ADS-B
Sun 01:33:06 PM 30.0217 -92.4678 300° West 382 440 38,000  Level FlightAware ADS-B
Sun 01:33:36 PM 30.0483 -92.5208 300° West 383 441 38,000  Level FlightAware ADS-B
Sun 01:34:06 PM 30.0750 -92.5739 300° West 385 443 38,000  Level FlightAware ADS-B
Sun 01:34:37 PM 30.1011 -92.6254 300° West 387 445 38,000  Level FlightAware ADS-B
Sun 01:35:07 PM 30.1291 -92.6803 300° West 388 447 38,000  Level FlightAware ADS-B
Sun 01:35:36 PM 30.1560 -92.7341 300° West 388 447 38,000  Level FlightAware ADS-B
Sun 01:36:06 PM 30.1819 -92.7856 300° West 389 448 38,000  Level FlightAware ADS-B
Sun 01:36:36 PM 30.2097 -92.8413 300° West 390 449 38,000  Level FlightAware ADS-B
Sun 01:37:07 PM 30.2368 -92.8954 300° West 391 450 38,000  Level FlightAware ADS-B
Sun 01:37:37 PM 30.2640 -92.9498 300° West 392 451 38,000  Level FlightAware ADS-B
Sun 01:38:07 PM 30.2913 -93.0046 300° West 394 453 38,000  Level FlightAware ADS-B
Sun 01:38:37 PM 30.3186 -93.0592 300° West 395 455 38,000  Level FlightAware ADS-B
Sun 01:39:06 PM 30.3453 -93.1125 300° West 396 456 38,000  Level FlightAware ADS-B
Sun 01:39:37 PM 30.3734 -93.1690 300° West 397 457 38,000  Level FlightAware ADS-B
Sun 01:40:07 PM 30.3989 -93.2202 300° West 397 457 38,000  Level FlightAware ADS-B
Sun 01:40:36 PM 30.4276 -93.2781 300° West 398 458 38,000  Level FlightAware ADS-B
Sun 01:41:06 PM 30.4551 -93.3337 300° West 398 458 38,000  Level FlightAware ADS-B
Sun 01:41:37 PM 30.4831 -93.3901 300° West 398 458 38,000  Level FlightAware ADS-B
Sun 01:42:06 PM 30.5083 -93.4413 300° West 398 458 38,000  Level FlightAware ADS-B
Sun 01:42:37 PM 30.5375 -93.5005 300° West 398 458 38,000  Level FlightAware ADS-B
Sun 01:43:07 PM 30.5649 -93.5561 300° West 398 458 38,000 -185 Level FlightAware ADS-B
Sun 01:43:42 PM 30.5968 -93.6208 300° West 398 458 37,800 -563 Descending FlightAware ADS-B
Sun 01:44:11 PM 30.6238 -93.6760 300° West 396 456 37,400 -828 Descending FlightAware ADS-B
Sun 01:44:40 PM 30.6496 -93.7289 300° West 397 457 37,000 -885 Descending FlightAware ADS-B
Sun 01:45:12 PM 30.6779 -93.7867 300° West 397 457 36,500 -871 Descending FlightAware ADS-B
Sun 01:45:42 PM 30.7047 -93.8415 300° West 399 459 36,100 -435 Descending FlightAware ADS-B
Sun 01:46:21 PM 30.7411 -93.9161 300° West 398 458 36,000 -86 Descending FlightAware ADS-B
Sun 01:46:52 PM 30.7684 -93.9719 300° West 398 458 36,000  Level FlightAware ADS-B
Sun 01:47:21 PM 30.7934 -94.0233 300° West 397 457 36,000  Level FlightAware ADS-B
Sun 01:47:51 PM 30.8220 -94.0819 300° West 396 456 36,000  Level FlightAware ADS-B
Sun 01:48:21 PM 30.8489 -94.1373 300° West 396 456 36,000  Level FlightAware ADS-B
Sun 01:48:51 PM 30.8751 -94.1914 299° West 394 453 36,000  Level FlightAware ADS-B
Sun 01:49:21 PM 30.9027 -94.2486 299° West 393 452 36,000  Level FlightAware ADS-B
Sun 01:49:52 PM 30.9291 -94.3033 299° West 391 450 36,000  Level FlightAware ADS-B
Sun 01:50:21 PM 30.9556 -94.3582 299° West 389 448 36,000  Level FlightAware ADS-B
Sun 01:50:52 PM 30.9817 -94.4123 299° West 387 445 36,000  Level FlightAware ADS-B
Sun 01:51:21 PM 31.0079 -94.4669 299° West 386 444 36,000  Level FlightAware ADS-B
Sun 01:51:51 PM 31.0335 -94.5200 299° West 383 441 36,000  Level FlightAware ADS-B
Sun 01:52:21 PM 31.0596 -94.5744 299° West 383 441 36,000  Level FlightAware ADS-B
Sun 01:52:52 PM 31.0839 -94.6252 299° West 382 440 36,000  Level FlightAware ADS-B
Sun 01:53:21 PM 31.1099 -94.6795 299° West 382 440 36,000  Level FlightAware ADS-B
Sun 01:53:52 PM 31.1368 -94.7358 299° West 381 438 36,000  Level FlightAware ADS-B
Sun 01:54:22 PM 31.1615 -94.7875 299° West 381 438 36,000  Level FlightAware ADS-B
Sun 01:54:51 PM 31.1874 -94.8419 299° West 380 437 36,000  Level FlightAware ADS-B
Sun 01:55:21 PM 31.2138 -94.8974 299° West 381 438 36,000  Level FlightAware ADS-B
Sun 01:55:51 PM 31.2388 -94.9502 299° West 381 438 36,000  Level FlightAware ADS-B
Sun 01:56:22 PM 31.2648 -95.0050 299° West 383 441 36,000 -1,010 Level FlightAware ADS-B
Sun 01:59:07 PM 31.4463 -95.2612 310° West 400 460 32,700 -1,224 Descending FlightAware ADS-B
Sun 01:59:38 PM 31.4952 -95.3236 313° West 401 461 32,000 -1,227 Descending FlightAware ADS-B
Sun 02:00:35 PM 31.5567 -95.4028 313° West 401 461 30,900 -1,671 Descending Houston Center
Sun 02:06:31 PM 31.9790 -95.9479 313° West 334 384 20,500 -1,803 Descending FlightAware ADS-B
Sun 02:07:01 PM 32.0094 -95.9872 312° West 332 382 19,300 -2,314 Descending FlightAware ADS-B
Sun 02:07:41 PM 32.0502 -96.0405 312° West 331 381 17,800 -1,976 Descending FlightAware ADS-B
Sun 02:08:26 PM 32.0935 -96.0976 312° West 324 373 16,500 -1,778 Descending FlightAware ADS-B
Sun 02:09:02 PM 32.1311 -96.1466 312° West 324 373 15,400 -1,971 Descending FlightAware ADS-B
Sun 02:09:36 PM 32.1605 -96.1857 312° West 313 360 14,200 -1,754 Descending FlightAware ADS-B
Sun 02:10:07 PM 32.1856 -96.2183 312° West 312 359 13,500 -1,677 Descending Fort Worth Center
Sun 02:11:09 PM 32.2531 -96.2967 316° Northwest 311 358 11,600 -1,161 Descending Fort Worth Center
Sun 02:12:11 PM 32.3161 -96.3706 315° West 317 365 11,100 -290 Descending Fort Worth Center
Sun 02:13:13 PM 32.3797 -96.4375 318° Northwest 287 330 11,000 -581 Descending Fort Worth Center
Sun 02:14:15 PM 32.4381 -96.4989 318° Northwest 284 327 9,900 -1,210 Descending Fort Worth Center
Sun 02:15:17 PM 32.4975 -96.5608 319° Northwest 265 305 8,500 -1,306 Descending Fort Worth Center
Sun 02:16:19 PM 32.5528 -96.6186 319° Northwest 266 306 7,200 -1,306 Descending Fort Worth Center
Sun 02:17:21 PM 32.6111 -96.6792 319° Northwest 260 299 5,800 -1,370 Descending Fort Worth Center
Sun 02:17:51 PM 32.6333 -96.7000 322° Northwest 257 296 5,100 -1,067 Descending Dallas / Fort Worth TRACON
Sun 02:18:51 PM 32.6833 -96.7667 312° West 246 283 4,200 -550 Descending Dallas / Fort Worth TRACON
Sun 02:19:51 PM 32.7333 -96.8167 320° Northwest 185 213 4,000 -500 Descending Dallas / Fort Worth TRACON
Sun 02:20:51 PM 32.7667 -96.8500 320° Northwest 162 186 3,200 -500 Descending Dallas / Fort Worth TRACON
Sun 02:21:51 PM 32.8000 -96.8833 320° Northwest 170 196 3,000 -450 Descending Dallas / Fort Worth TRACON
Sun 02:22:51 PM 32.8333 -96.9333 308° West 164 189 2,300 -750 Descending Dallas / Fort Worth TRACON
Sun 02:23:51 PM 32.8667 -96.9667 320° Northwest 145 167 1,500 -800 Descending Dallas / Fort Worth TRACON
Sun 02:24:51 PM 32.8833 -97.0000 301° West 143 165 700 -800 Descending Dallas / Fort Worth TRACON

Login

Don't have an account? Register now (free) for customized features, flight alerts, and more!